| time (UTC) | temp F | wind direction | speed knots | gust knots | rain 1hr in | rain 24hr in | rain mn in | humidity % | barometer mb |
| 20260507223034 | 76 | 296 | 9.6 | 18.2 | 0.00 | 0.00 | 0.00 | 27 | 1016.9 |
| 20260507221536 | 76 | 298 | 10.4 | 17.4 | 0.00 | 0.00 | 0.00 | 27 | 1016.9 |
| 20260507220038 | 75 | 299 | 8.7 | 17.4 | 0.00 | 0.00 | 0.00 | 28 | 1017.3 |
| 20260507214535 | 74 | 298 | 10.4 | 18.2 | 0.00 | 0.00 | 0.00 | 28 | 1017.4 |
| 20260507213042 | 74 | 320 | 8.7 | 17.4 | 0.00 | 0.00 | 0.00 | 31 | 1017.5 |
| 20260507213036 | 72 | 316 | 9.6 | 17.4 | 0.00 | 0.00 | 0.00 | 33 | 1017.6 |
| 20260507210031 | 71 | 313 | 10.4 | 17.4 | 0.00 | 0.00 | 0.00 | 34 | 1017.8 |
| 20260507204533 | 70 | 304 | 8.7 | 16.5 | 0.00 | 0.01 | 0.00 | 36 | 1018.0 |
| 20260507201536 | 68 | 319 | 8.7 | 15.6 | 0.00 | 0.01 | 0.00 | 38 | 1018.3 |
| 20260507200033 | 68 | 315 | 9.6 | 17.4 | 0.00 | 0.01 | 0.00 | 39 | 1018.4 |
| 20260507194531 | 67 | 323 | 9.6 | 15.6 | 0.00 | 0.01 | 0.00 | 41 | 1018.5 |
| 20260507193037 | 66 | 315 | 9.6 | 17.4 | 0.00 | 0.01 | 0.00 | 43 | 1018.6 |
| 20260507190034 | 65 | 312 | 11.3 | 20.9 | 0.00 | 0.01 | 0.00 | 46 | 1018.8 |
| 20260507184541 | 65 | 312 | 11.3 | 20.9 | 0.00 | 0.01 | 0.00 | 47 | 1019.0 |
| 20260507184534 | 64 | 315 | 10.4 | 17.4 | 0.00 | 0.01 | 0.00 | 48 | 1019.4 |
| 20260507181532 | 64 | 312 | 9.6 | 16.5 | 0.00 | 0.01 | 0.00 | 48 | 1019.6 |
| 20260507180034 | 63 | 316 | 7.8 | 13.9 | 0.00 | 0.01 | 0.00 | 50 | 1019.7 |
| 20260507173107 | 63 | 312 | 8.7 | 15.6 | 0.00 | 0.01 | 0.00 | 52 | 1020.1 |
| 20260507171605 | 63 | 318 | 7.8 | 13.9 | 0.00 | 0.01 | 0.00 | 53 | 1020.3 |
| 20260507170033 | 63 | 325 | 7.0 | 12.2 | 0.00 | 0.01 | 0.00 | 54 | 1020.4 |
| 20260507164534 | 62 | 327 | 6.1 | 12.2 | 0.00 | 0.01 | 0.00 | 56 | 1020.4 |
| 20260507163032 | 61 | 312 | 7.0 | 11.3 | 0.00 | 0.01 | 0.00 | 58 | 1020.4 |
| 20260507161539 | 60 | 294 | 6.1 | 12.2 | 0.00 | 0.01 | 0.00 | 61 | 1020.5 |
| 20260507154606 | 59 | 291 | 7.0 | 12.2 | 0.00 | 0.01 | 0.00 | 67 | 1020.8 |
| 20260507151536 | 57 | 318 | 2.6 | 6.1 | 0.00 | 0.01 | 0.00 | 71 | 1020.9 |
| 20260507150144 | 56 | 293 | 3.5 | 6.1 | 0.00 | 0.01 | 0.00 | 72 | 1021.0 |
| 20260507144534 | 55 | 297 | 3.5 | 8.7 | 0.00 | 0.01 | 0.00 | 74 | 1020.9 |
| 20260507143031 | 55 | 314 | 3.5 | 8.7 | 0.00 | 0.01 | 0.00 | 74 | 1020.8 |
| 20260507141535 | 54 | 350 | 1.7 | 4.3 | 0.00 | 0.01 | 0.00 | 76 | 1020.9 |
| 20260507140034 | 53 | 286 | 0.9 | 4.3 | 0.00 | 0.01 | 0.00 | 77 | 1020.7 |
| 20260507134535 | 53 | 113 | 2.6 | 7.8 | 0.00 | 0.01 | 0.00 | 75 | 1020.5 |
| 20260507131536 | 54 | 301 | 8.7 | 14.8 | 0.00 | 0.01 | 0.00 | 73 | 1020.0 |
| 20260507130117 | 54 | 292 | 9.6 | 15.6 | 0.00 | 0.01 | 0.00 | 73 | 1019.9 |
| 20260507124530 | 54 | 294 | 10.4 | 16.5 | 0.00 | 0.01 | 0.00 | 73 | 1019.9 |
| 20260507123108 | 55 | 298 | 11.3 | 17.4 | 0.00 | 0.01 | 0.00 | 73 | 1019.9 |
| 20260507120035 | 55 | 295 | 9.6 | 17.4 | 0.00 | 0.01 | 0.00 | 74 | 1019.8 |
| 20260507114539 | 55 | 298 | 7.8 | 15.6 | 0.00 | 0.01 | 0.00 | 74 | 1019.8 |
| 20260507113034 | 55 | 297 | 7.8 | 16.5 | 0.00 | 0.01 | 0.00 | 74 | 1019.7 |
| 20260507111531 | 55 | 300 | 7.8 | 12.2 | 0.00 | 0.01 | 0.00 | 74 | 1019.5 |
| 20260507110036 | 56 | 304 | 6.1 | 12.2 | 0.00 | 0.01 | 0.00 | 73 | 1019.4 |
| 20260507104607 | 56 | 291 | 7.8 | 14.8 | 0.00 | 0.01 | 0.00 | 73 | 1019.1 |
| 20260507103037 | 56 | 290 | 9.6 | 15.6 | 0.00 | 0.01 | 0.00 | 72 | 1019.0 |
| 20260507101536 | 57 | 290 | 10.4 | 17.4 | 0.00 | 0.01 | 0.00 | 71 | 1019.0 |
| 20260507100044 | 57 | 285 | 10.4 | 18.2 | 0.00 | 0.01 | 0.00 | 70 | 1019.1 |
| 20260507094536 | 58 | 281 | 9.6 | 13.9 | 0.00 | 0.01 | 0.00 | 70 | 1019.3 |
| 20260507093038 | 58 | 285 | 8.7 | 15.6 | 0.00 | 0.01 | 0.00 | 70 | 1019.4 |
| 20260507091535 | 58 | 286 | 8.7 | 14.8 | 0.00 | 0.01 | 0.00 | 70 | 1019.6 |
| 20260507083038 | 58 | 340 | 6.1 | 10.4 | 0.00 | 0.01 | 0.00 | 71 | 1019.5 |
| 20260507081536 | 59 | 342 | 5.2 | 9.6 | 0.00 | 0.01 | 0.00 | 71 | 1019.6 |
| 20260507080030 | 59 | 339 | 6.1 | 9.6 | 0.00 | 0.01 | 0.00 | 71 | 1019.6 |
| 20260507074533 | 59 | 323 | 7.0 | 12.2 | 0.00 | 0.01 | 0.00 | 70 | 1019.6 |
| 20260507071537 | 60 | 301 | 8.7 | 14.8 | 0.00 | 0.01 | 0.00 | 70 | 1019.5 |
| 20260507070035 | 60 | 295 | 8.7 | 15.6 | 0.00 | 0.01 | 0.00 | 70 | 1019.5 |
| 20260507064537 | 60 | 307 | 7.0 | 12.2 | 0.00 | 0.01 | 0.01 | 70 | 1019.5 |
| 20260507063142 | 60 | 304 | 7.0 | 12.2 | 0.00 | 0.01 | 0.01 | 69 | 1019.6 |
| 20260507060106 | 61 | 302 | 7.0 | 13.9 | 0.00 | 0.01 | 0.01 | 69 | 1019.8 |
| 20260507054606 | 61 | 295 | 7.0 | 12.2 | 0.00 | 0.01 | 0.01 | 68 | 1019.9 |
| 20260507053036 | 62 | 290 | 7.0 | 14.8 | 0.00 | 0.01 | 0.01 | 66 | 1019.9 |
| 20260507050106 | 62 | 282 | 5.2 | 9.6 | 0.00 | 0.01 | 0.01 | 64 | 1019.9 |
| 20260507044533 | 62 | 265 | 3.5 | 7.0 | 0.00 | 0.01 | 0.01 | 62 | 1019.8 |
| 20260507043143 | 63 | 280 | 4.3 | 7.8 | 0.00 | 0.01 | 0.01 | 58 | 1019.8 |
| 20260507041535 | 65 | 296 | 4.3 | 8.7 | 0.00 | 0.01 | 0.01 | 51 | 1019.6 |
| 20260507040045 | 66 | 263 | 5.2 | 12.2 | 0.00 | 0.01 | 0.01 | 50 | 1019.4 |
| 20260507034537 | 67 | 254 | 6.1 | 12.2 | 0.00 | 0.01 | 0.01 | 49 | 1019.3 |
| 20260507031536 | 68 | 269 | 5.2 | 10.4 | 0.00 | 0.01 | 0.01 | 47 | 1019.1 |
| 20260507030031 | 69 | 277 | 6.1 | 10.4 | 0.00 | 0.01 | 0.01 | 47 | 1019.1 |
| 20260507024528 | 67 | 308 | 5.2 | 9.6 | 0.00 | 0.01 | 0.01 | 51 | 1019.1 |
| 20260507023033 | 66 | 333 | 2.6 | 6.1 | 0.00 | 0.01 | 0.01 | 53 | 1019.1 |
| 20260507021535 | 67 | 355 | 3.5 | 7.0 | 0.00 | 0.01 | 0.01 | 51 | 1019.0 |
| 20260507020044 | 67 | 340 | 4.3 | 9.6 | 0.00 | 0.01 | 0.01 | 52 | 1018.9 |
| 20260507013108 | 68 | 336 | 6.1 | 12.2 | 0.00 | 0.01 | 0.01 | 49 | 1018.7 |
| 20260507011642 | 69 | 320 | 7.0 | 13.0 | 0.00 | 0.01 | 0.01 | 48 | 1018.7 |
| 20260507010032 | 69 | 310 | 9.6 | 18.2 | 0.00 | 0.01 | 0.01 | 47 | 1018.7 |
| 20260507004535 | 70 | 298 | 8.7 | 16.5 | 0.00 | 0.01 | 0.01 | 45 | 1018.6 |
| 20260507003037 | 70 | 292 | 9.6 | 21.7 | 0.00 | 0.01 | 0.01 | 45 | 1018.3 |
| 20260507001536 | 71 | 287 | 9.6 | 17.4 | 0.00 | 0.01 | 0.01 | 44 | 1018.2 |
| 20260507000033 | 71 | 288 | 9.6 | 16.5 | 0.00 | 0.01 | 0.01 | 42 | 1018.1 |
| 20260506234536 | 72 | 285 | 11.3 | 20.9 | 0.00 | 0.01 | 0.01 | 40 | 1018.0 |
| 20260506233034 | 74 | 291 | 13.0 | 23.5 | 0.00 | 0.01 | 0.01 | 40 | 1017.8 |
| 20260506230037 | 73 | 288 | 9.6 | 17.4 | 0.00 | 0.01 | 0.01 | 41 | 1017.8 |
| 20260506224607 | 76 | 297 | 9.6 | 20.0 | 0.00 | 0.01 | 0.01 | 40 | 1018.2 |